Weather observations for the past three days for
MANDAN
Imperial (Metric)
Date Time (cdt) Wind (mph) Vis. (mi.) Weather Sky Cond. Temperature (ºF) Relative Humidity Wind Chill (°F) Heat Index (°F) Pressure Precipitation (in)
Air Dwpt 6 hour altimeter (in) sea level (mb) 1 hr 3 hr 6 hr
Max. Min.
02 03:55 NE 6 10.00 Fair CLR 62.6 60.8 94% 29.94 0.0
02 03:35 E 5 10.00 Fair CLR 62.6 60.8 94% 29.95 0.0
02 03:15 E 6 10.00 Fair CLR 62.6 60.8 94% 29.95 0.0
02 02:55 Calm 10.00 Fair CLR 60.8 60.8 100% 29.95 0.0
02 02:35 E 5 10.00 Fair CLR 62.6 60.8 94% 29.94 0.0
02 02:15 E 5 10.00 A Few Clouds FEW120 62.6 60.8 94% 29.95 0.0
02 01:55 E 5 10.00 A Few Clouds FEW120 62.6 60.8 94% 29.95 0.0
02 01:35 SE 6 10.00 Fair CLR 60.8 60.8 100% 29.95 0.0
02 01:15 E 8 10.00 Fair CLR 62.6 59 88% 29.95 0.0
02 00:55 E 6 10.00 Fair CLR 62.6 59 88% 29.95 0.0
02 00:35 E 5 10.00 Fair CLR 64.4 57.2 78% 29.95 0.0
02 00:15 E 3 10.00 Fair CLR 64.4 59 83% 29.95 0.0
01 23:55 NE 3 10.00 Fair CLR 64.4 59 83% 29.94 0.0
01 23:35 N 6 10.00 Fair CLR 66.2 59 78% 29.95 0.0
01 23:15 E 5 10.00 Fair CLR 68 59 73% 29.95 0.0
01 22:55 E 5 10.00 Fair CLR 66.2 59 78% 29.96 0.0
01 22:35 E 3 10.00 Fair CLR 68 60.8 78% 29.95 0.0
01 22:15 SE 6 10.00 Fair CLR 68 59 73% 29.95 0.0
01 21:55 SE 6 10.00 Fair CLR 68 59 73% 29.95 0.0
01 21:35 SE 6 10.00 Fair CLR 68 59 73% 29.95 0.0
01 21:15 SE 6 10.00 Fair CLR 68 60.8 78% 29.95 0.0
01 20:55 SE 6 10.00 Fair CLR 69.8 60.8 73% 29.95 0.0
01 20:35 SE 5 10.00 Fair CLR 69.8 60.8 73% 29.95 0.0
01 20:15 SE 3 10.00 Fair CLR 71.6 59 65% 29.95 0.0
01 19:55 SE 3 10.00 Fair CLR 71.6 60.8 69% 29.95 0.0
01 19:35 SE 3 9.00 Fair CLR 71.6 60.8 69% 29.95 0.0
01 19:15 SE 3 10.00 Fair CLR 73.4 60.8 65% 29.95 0.0
01 18:55 Calm 10.00 Fair CLR 73.4 60.8 65% 29.95 0.0
01 18:35 Calm 10.00 Fair CLR 73.4 60.8 65% 29.96 0.0
01 18:15 SE 3 10.00 Fair CLR 73.4 60.8 65% 29.96 0.0
01 17:55 SE 6 10.00 Fair CLR 73.4 59 61% 29.96 0.0
01 17:35 SE 5 10.00 Fair CLR 73.4 57.2 57% 29.96 0.0
01 17:15 SE 6 10.00 Fair CLR 73.4 59 61% 29.96 0.0
01 16:55 SE 6 10.00 Fair CLR 73.4 59 61% 29.97 0.0
01 16:35 SE 5 10.00 Fair CLR 75.2 59 57% 78 29.97 0.0
01 16:15 SE 6 10.00 Fair CLR 75.2 59 57% 78 29.98 0.0
01 15:55 E 5 10.00 Fair CLR 75.2 57.2 54% 78 29.98 0.0
01 15:35 E 6 10.00 Fair CLR 75.2 57.2 54% 78 29.98 0.0
01 15:15 E 6 10.00 Fair CLR 75.2 57.2 54% 78 29.98 0.0
01 14:55 SE 3 10.00 Fair CLR 75.2 57.2 54% 78 29.99 0.0
01 14:35 SW 5 10.00 Fair CLR 75.2 57.2 54% 78 30 0.0
01 14:15 SE 3 10.00 Fair CLR 77 55.4 47% 79 30 0.0
01 13:55 S 5 10.00 Fair CLR 77 55.4 47% 79 30 0.0
01 13:35 Vrbl 5 10.00 Fair CLR 75.2 55.4 50% 78 30 0.0
01 13:15 Calm 10.00 Fair CLR 75.2 55.4 50% 78 30.01 0.0
01 12:55 Vrbl 3 10.00 Fair CLR 73.4 55.4 53% 30.01 0.0
01 12:35 Calm 10.00 Fair CLR 73.4 55.4 53% 30.01 0.0
01 12:15 Calm 10.00 Fair CLR 73.4 53.6 50% 30.02 0.0
01 11:55 SE 3 10.00 Fair CLR 71.6 57.2 61% 30.02 0.0
01 11:35 SE 3 10.00 Fair CLR 71.6 57.2 61% 30.02 0.0
01 11:15 SE 6 10.00 Fair CLR 69.8 57.2 64% 30.03 0.0
01 10:55 Calm 10.00 Fair CLR 69.8 57.2 64% 30.02 0.0
01 10:35 Calm 10.00 Fair CLR 69.8 59 69% 30.02 0.0
01 10:15 E 3 10.00 Fair CLR 66.2 57.2 73% 30.01 0.0
01 09:55 Calm 10.00 Fair CLR 64.4 55.4 73% 30.02 0.0
01 09:35 Calm 10.00 Fair CLR 64.4 55.4 73% 30.02 0.0
01 09:15 Calm 10.00 Fair CLR 59 55.4 88% 30.02 0.0
01 08:55 Calm 10.00 Fair CLR 57.2 53.6 88% 30.03 0.0
01 08:35 S 8 10.00 Fair CLR 59 53.6 82% 30.03 0.0
01 08:15 Calm 10.00 Fair CLR 57.2 53.6 88% 30.02 0.0
01 07:55 Calm 10.00 Fair CLR 53.6 53.6 100% 30.02 0.0
01 07:35 Calm 10.00 Fair CLR 53.6 50 88% 30.01 0.0
01 07:15 NW 5 10.00 Fair CLR 50 50 100% 49 30 0.0
01 06:55 W 5 10.00 Fair CLR 48.2 48.2 100% 47 30 0.0
01 06:35 W 7 10.00 Fair CLR 50 50 100% 48 30 0.0
01 06:15 W 6 10.00 Fair CLR 50 48.2 94% 48 30 0.0
01 05:55 Calm 10.00 Fair CLR 51.8 50 94% 30 0.0
01 05:35 W 6 10.00 Fair CLR 51.8 50 94% 30 0.0
01 05:15 W 6 10.00 Fair CLR 51.8 50 94% 29.99 0.0
01 04:55 W 5 10.00 Fair CLR 51.8 50 94% 29.99 0.0
01 04:35 W 6 10.00 Fair CLR 53.6 50 88% 29.99 0.0
01 04:15 W 7 10.00 Fair CLR 55.4 50 82% 29.99 0.0
01 03:55 W 6 10.00 Fair CLR 53.6 50 88% 29.98 0.0
01 03:35 W 6 10.00 Fair CLR 53.6 50 88% 29.98 0.0
01 03:15 W 6 10.00 Fair CLR 53.6 50 88% 29.98 0.0
01 02:55 W 6 10.00 Fair CLR 51.8 50 94% 29.98 0.0
01 02:35 Calm 10.00 Fair CLR 53.6 50 88% 29.98 0.0
01 02:15 Calm 10.00 Fair CLR 57.2 50 77% 29.99 0.0
01 01:55 NW 9 10.00 Fair CLR 60.8 50 68% 29.98 0.0
01 01:35 W 7 10.00 Fair CLR 57.2 50 77% 29.98 0.0
01 01:15 W 7 10.00 Fair CLR 57.2 50 77% 29.98 0.0
01 00:55 W 8 10.00 Fair CLR 55.4 50 82% 29.98 0.0
01 00:35 NW 7 10.00 Fair CLR 59 50 72% 29.97 0.0
01 00:15 W 8 10.00 Fair CLR 59 50 72% 29.97 0.0
31 23:55 W 9 10.00 Fair CLR 60.8 50 68% 29.97 0.0
31 23:35 W 10 10.00 Fair CLR 60.8 50 68% 29.96 0.0
31 23:15 SW 9 10.00 Fair CLR 60.8 51.8 72% 29.96 0.0
31 22:55 SW 7 10.00 Fair CLR 60.8 51.8 72% 29.95 0.0
31 22:35 W 9 10.00 Fair CLR 64.4 50 60% 29.94 0.0
31 22:15 W 12 10.00 Fair CLR 62.6 51.8 68% 29.94 0.0
31 21:55 SW 9 10.00 Fair CLR 62.6 51.8 68% 29.94 0.0
31 21:35 SW 9 10.00 Fair CLR 64.4 51.8 64% 29.93 0.0
31 21:15 SW 9 10.00 Fair CLR 66.2 51.8 60% 29.93 0.0
31 20:55 SW 9 10.00 Fair CLR 68 51.8 56% 29.92 0.0
31 20:35 SW 9 10.00 Fair CLR 68 53.6 60% 29.91 0.0
31 20:15 W 9 10.00 Fair CLR 69.8 53.6 57% 29.91 0.0
31 19:55 W 9 10.00 Fair CLR 73.4 53.6 50% 29.9 0.0
31 19:35 W 12 10.00 Fair CLR 75.2 53.6 47% 78 29.9 0.0
31 19:15 W 14 10.00 Fair CLR 77 51.8 42% 78 29.9 0.0
31 18:55 W 15 G 23 10.00 Fair CLR 77 53.6 44% 78 29.89 0.0
31 18:35 W 17 G 25 10.00 Fair CLR 78.8 51.8 39% 79 29.89 0.0
31 18:15 W 24 10.00 Fair and Breezy CLR 78.8 51.8 39% 79 29.89 0.0
31 17:55 W 21 G 28 10.00 Fair and Breezy CLR 78.8 51.8 39% 79 29.89 0.0
31 17:35 W 24 G 33 10.00 Fair and Breezy CLR 78.8 51.8 39% 79 29.88 0.0
31 17:15 W 18 G 32 10.00 Fair CLR 78.8 51.8 39% 79 29.88 0.0
31 16:55 W 17 G 32 10.00 Fair CLR 78.8 51.8 39% 79 29.88 0.0
31 16:35 W 24 G 31 10.00 Fair and Breezy CLR 78.8 50 37% 79 29.88 0.0
31 16:15 W 22 G 28 10.00 Fair and Breezy CLR 80.6 51.8 37% 80 29.89 0.0
31 15:55 W 24 G 35 10.00 Fair and Breezy CLR 78.8 51.8 39% 79 29.89 0.0
31 15:35 W 26 G 36 10.00 Fair and Windy CLR 78.8 50 37% 79 29.9 0.0
31 15:15 W 29 G 36 10.00 Fair and Windy CLR 78.8 50 37% 79 29.9 0.0
31 14:55 W 22 G 29 10.00 Fair and Breezy CLR 78.8 51.8 39% 79 29.9 0.0
31 14:35 W 25 G 35 10.00 Fair and Breezy CLR 78.8 51.8 39% 79 29.9 0.0
31 14:15 W 26 G 35 10.00 Fair and Windy CLR 77 51.8 42% 78 29.9 0.0
31 13:55 W 28 10.00 Fair and Windy CLR 77 51.8 42% 78 29.9 0.0
31 13:35 W 23 10.00 Fair and Breezy CLR 75.2 53.6 47% 78 29.91 0.0
31 13:15 W 23 G 33 10.00 Fair and Breezy CLR 75.2 53.6 47% 78 29.92 0.0
31 12:55 W 24 G 31 10.00 Fair and Breezy CLR 75.2 53.6 47% 78 29.92 0.0
31 12:35 W 26 G 35 10.00 Fair and Windy CLR 73.4 53.6 50% 29.92 0.0
31 12:15 W 23 10.00 Fair and Breezy CLR 73.4 53.6 50% 29.93 0.0
31 11:55 W 20 G 25 10.00 Fair CLR 71.6 53.6 53% 29.93 0.0
31 11:35 W 18 G 25 10.00 Fair CLR 71.6 53.6 53% 29.93 0.0
31 11:15 SW 15 G 25 10.00 Fair CLR 69.8 55.4 60% 29.93 0.0
31 10:55 W 22 G 28 10.00 Fair and Breezy CLR 69.8 55.4 60% 29.93 0.0
31 10:35 SW 15 G 23 10.00 Fair CLR 69.8 55.4 60% 29.93 0.0
31 09:55 SW 15 G 22 10.00 Fair CLR 66.2 55.4 68% 29.92 0.0
31 09:35 SW 13 G 18 10.00 Fair CLR 64.4 57.2 78% 29.93 0.0
31 09:15 SW 12 10.00 Fair CLR 62.6 57.2 83% 29.93 0.0
31 08:55 SW 10 10.00 Fair CLR 59 55.4 88% 29.93 0.0
31 08:35 SW 9 10.00 Fair CLR 57.2 55.4 94% 29.92 0.0
31 08:15 SW 12 10.00 Fair CLR 55.4 53.6 94% 29.92 0.0
31 07:55 SW 9 10.00 Fair CLR 53.6 53.6 100% 29.92 0.0
31 07:35 SW 10 10.00 Fair CLR 53.6 53.6 100% 29.91 0.0
31 07:15 SW 9 10.00 Fair CLR 51.8 51.8 100% 29.91 0.0
31 06:55 SW 10 10.00 Fair CLR 51.8 51.8 100% 29.9 0.0
31 06:35 SW 10 10.00 Fair CLR 53.6 53.6 100% 29.89 0.0
31 06:15 SW 10 10.00 Fair CLR 51.8 51.8 100% 29.89 0.0
31 05:55 SW 10 10.00 Fair CLR 51.8 51.8 100% 29.89 0.0
31 05:35 SW 13 10.00 Fair CLR 51.8 51.8 100% 29.88 0.0
31 05:15 SW 13 10.00 Fair CLR 51.8 51.8 100% 29.87 0.0
31 04:55 SW 10 10.00 Fair CLR 51.8 51.8 100% 29.87 0.0
31 04:35 SW 10 10.00 Fair CLR 51.8 51.8 100% 29.86 0.0
31 04:15 SW 8 10.00 Fair CLR 51.8 51.8 100% 29.86 0.0
31 03:55 SW 8 10.00 Fair CLR 53.6 53.6 100% 29.86 0.0
31 03:35 W 7 10.00 Fair CLR 53.6 53.6 100% 29.86 0.0
31 03:15 W 7 10.00 Fair CLR 53.6 53.6 100% 29.86 0.0
31 02:55 W 8 10.00 Fair CLR 53.6 53.6 100% 29.86 0.0
31 02:35 W 7 10.00 Fair CLR 53.6 53.6 100% 29.85 0.0
31 02:15 W 8 10.00 Fair CLR 53.6 53.6 100% 29.86 0.0
31 01:55 W 9 10.00 Fair CLR 53.6 53.6 100% 29.86 0.0
31 01:35 W 7 10.00 Fair CLR 55.4 55.4 100% 29.86 0.0
31 01:15 W 9 10.00 Fair CLR 55.4 55.4 100% 29.87 0.0
31 00:55 SW 8 10.00 Fair CLR 55.4 55.4 100% 29.86 0.0
31 00:35 W 8 10.00 Fair CLR 55.4 55.4 100% 29.85 0.0
31 00:15 W 9 10.00 Fair CLR 57.2 57.2 100% 29.84 0.0
30 23:55 W 10 10.00 Fair CLR 59 59 100% 29.84 0.0
30 23:35 W 9 10.00 Fair CLR 59 59 100% 29.84 0.0
30 23:15 W 12 10.00 Fair CLR 57.2 57.2 100% 29.84 0.0
30 22:55 W 9 10.00 A Few Clouds FEW090 FEW110 59 59 100% 29.83 0.0
30 22:35 NW 8 10.00 Mostly Cloudy FEW060 SCT075 BKN100 60.8 60.8 100% 29.82 0.0
30 22:15 SW 6 10.00 Mostly Cloudy FEW055 SCT065 BKN075 62.6 60.8 94% 29.85 0.0
30 21:55 N 5 10.00 Overcast FEW055 SCT075 OVC100 62.6 60.8 94% 29.82 0.0
30 21:35 N 8 10.00 Overcast SCT050 BKN075 OVC120 62.6 60.8 94% 29.81 0.0
30 21:15 N 13 10.00 Mostly Cloudy FEW021 BKN047 BKN070 62.6 62.6 100% 29.81 0.0
30 20:55 N 14 10.00 Mostly Cloudy FEW038 SCT050 BKN070 62.6 62.6 100% 29.81 0.0
30 20:35 NW 16 G 22 10.00 Overcast SCT036 BKN070 OVC100 62.6 62.6 100% 29.82 0.0
30 20:15 NW 24 G 35 5.00 Light Rain and Breezy FEW018 BKN029 OVC047 62.6 62.6 100% 29.82 0.0
30 19:55 NW 24 G 36 2.50 Thunderstorm in Vicinity Rain and Breezy SCT004 BKN024 OVC029 62.6 62.6 100% 29.83 0.0
30 19:35 W 37 G 49 1.25 Thunderstorm Rain and Windy SCT004 BKN024 OVC030 66.2 66.2 100% 29.8 0.0
30 19:15 S 6 10.00 A Few Clouds FEW029 FEW095 75.2 73.4 94% 74 29.74 0.0
30 18:55 SE 10 10.00 Thunderstorm in Vicinity CLR 75.2 73.4 94% 74 29.71 0.0
30 18:35 SE 12 10.00 Fair CLR 77 73.4 89% 78 29.71 0.0
30 18:15 SE 17 10.00 Partly Cloudy FEW026 SCT035 77 73.4 89% 78 29.71 0.0
30 17:55 SE 10 10.00 Partly Cloudy FEW032 SCT039 80.6 73.4 79% 85 29.71 0.0
30 17:35 E 14 10.00 Mostly Cloudy SCT030 BKN039 80.6 73.4 79% 85 29.71 0.0
30 17:15 E 15 10.00 A Few Clouds FEW030 80.6 73.4 79% 85 29.71 0.0
30 16:55 E 13 G 18 10.00 A Few Clouds FEW042 80.6 73.4 79% 85 29.71 0.0
30 16:35 SE 10 10.00 Partly Cloudy SCT041 82.4 73.4 74% 88 29.72 0.0
30 16:15 Vrbl 3 G 18 10.00 Partly Cloudy FEW031 SCT042 82.4 73.4 74% 88 29.73 0.0
30 15:55 E 10 10.00 Mostly Cloudy SCT029 BKN038 BKN044 80.6 73.4 79% 85 29.74 0.0
30 15:35 E 6 G 16 10.00 Mostly Cloudy SCT028 BKN034 BKN110 80.6 73.4 79% 85 29.74 0.0
30 15:15 E 9 10.00 Partly Cloudy FEW025 SCT031 78.8 71.6 79% 82 29.75 0.0
30 14:55 E 8 10.00 Mostly Cloudy SCT023 BKN030 78.8 73.4 84% 82 29.75 0.0
30 14:35 SE 7 10.00 Partly Cloudy SCT022 SCT027 78.8 73.4 84% 82 29.75 0.0
30 14:15 E 8 10.00 Mostly Cloudy BKN020 BKN027 77 73.4 89% 78 29.76 0.0
30 13:55 E 8 10.00 Overcast OVC018 77 73.4 89% 78 29.76 0.0
30 13:35 E 10 10.00 Overcast OVC018 75.2 73.4 94% 74 29.77 0.0
30 13:15 E 8 10.00 Overcast BKN015 OVC019 75.2 73.4 94% 74 29.78 0.0
30 12:55 E 7 10.00 Overcast OVC015 73.4 73.4 100% 29.79 0.0
30 12:35 E 6 10.00 Overcast BKN014 OVC018 73.4 73.4 100% 29.8 0.0
30 12:15 SE 5 10.00 Overcast OVC013 73.4 73.4 100% 29.79 0.0
30 11:55 SE 7 10.00 Overcast OVC012 73.4 73.4 100% 29.79 0.0
30 11:35 E 7 10.00 Overcast BKN008 OVC012 71.6 71.6 100% 29.79 0.0
30 11:15 SE 8 10.00 Mostly Cloudy BKN008 71.6 71.6 100% 29.79 0.0
30 10:55 E 7 10.00 Overcast OVC006 71.6 71.6 100% 29.79 0.0
30 10:35 E 6 7.00 Overcast OVC004 69.8 69.8 100% 29.79 0.0
30 10:15 E 7 6.00 Fog/Mist OVC004 69.8 69.8 100% 29.79 0.0
30 09:55 Calm 8.00 Overcast OVC004 68 68 100% 29.79 0.0
30 09:35 E 5 10.00 Overcast OVC004 68 68 100% 29.8 0.0
30 09:15 E 7 10.00 Overcast OVC004 68 68 100% 29.79 0.0
30 08:55 E 8 8.00 Overcast OVC004 68 68 100% 29.79 0.0
30 08:35 E 7 4.00 Fog/Mist OVC003 68 68 100% 29.8 0.0
30 08:15 E 10 4.00 Fog/Mist OVC003 68 68 100% 29.8 0.0
30 07:55 E 10 4.00 Fog/Mist OVC003 68 68 100% 29.8 0.0
30 07:35 E 7 6.00 Fog/Mist OVC004 68 68 100% 29.79 0.0
30 07:15 NE 7 9.00 Overcast OVC004 66.2 66.2 100% 29.79 0.0
30 06:55 NE 7 10.00 Mostly Cloudy BKN005 66.2 66.2 100% 29.78 0.0
30 06:35 NE 7 10.00 Partly Cloudy SCT006 SCT009 SCT019 66.2 66.2 100% 29.78 0.0
30 05:55 E 7 9.00 Overcast BKN004 OVC008 68 68 100% 29.77 0.0
30 05:15 NE 6 0.75 Fog/Mist OVC002 68 68 100% 29.76 0.0
30 04:55 Calm 5.00 Fog/Mist SCT006 BKN009 68 68 100% 29.76 0.0
30 04:35 N 5 6.00 Fog/Mist FEW003 FEW009 68 68 100% 29.76 0.0
30 04:15 N 7 6.00 Fog/Mist FEW003 SCT120 68 68 100% 29.76 0.0
Date Time (cdt) Wind (mph) Vis. (mi.) Weather Sky Cond. Air Dwpt Max. Min. Relative Humidity Wind Chill (°F) Heat Index (°F) altimeter (in) sea level (mb) 1 hr 3 hr 6 hr
6 hour
Temperature (ºF) Pressure Precipitation (in)